Time;durP1;ratioP1;P1;durP2;ratioP2;P2;SDS_P1;SDS_P2;PMS_P1;PMS_P2;Temp;Humidity;BMP_temperature;BMP_pressure;BME280_temperature;BME280_humidity;BME280_pressure;Samples;Min_cycle;Max_cycle;Signal;HPM_P1;HPM_P2
2021/04/21 00:00:18;;;;;;;10.43;4.82;;;6.10;99.90;;;;;;3588326;39;20044;-61
2021/04/21 00:02:48;;;;;;;11.95;5.18;;;6.00;99.90;;;;;;3588592;39;20849;-61
2021/04/21 00:05:15;;;;;;;13.95;5.47;;;6.00;99.90;;;;;;3587139;40;20040;-61
2021/04/21 00:07:41;;;;;;;13.50;5.10;;;6.00;99.90;;;;;;3588422;40;20095;-61
2021/04/21 00:10:12;;;;;;;12.57;5.30;;;6.00;99.90;;;;;;3588269;40;20720;-61
2021/04/21 00:12:38;;;;;;;13.10;5.28;;;6.10;99.90;;;;;;3588242;39;20056;-60
2021/04/21 00:15:08;;;;;;;11.85;4.75;;;6.20;99.90;;;;;;3587985;39;20040;-61
2021/04/21 00:17:38;;;;;;;11.35;5.60;;;6.30;99.90;;;;;;3588748;40;20039;-61
2021/04/21 00:20:06;;;;;;;9.80;4.53;;;6.30;99.90;;;;;;3587715;40;20033;-61
2021/04/21 00:22:33;;;;;;;9.75;5.18;;;6.40;99.90;;;;;;3587397;40;20048;-60
2021/04/21 00:24:59;;;;;;;12.38;4.38;;;6.40;99.90;;;;;;3588967;39;20133;-61
2021/04/21 00:27:28;;;;;;;12.05;4.18;;;6.40;99.90;;;;;;3588918;39;20669;-61
2021/04/21 00:29:58;;;;;;;11.50;4.93;;;6.40;99.90;;;;;;3589254;39;20453;-61
2021/04/21 00:32:26;;;;;;;10.80;4.72;;;6.50;99.90;;;;;;3587705;39;20084;-61
2021/04/21 00:34:55;;;;;;;11.20;5.35;;;6.50;99.90;;;;;;3588858;39;20117;-61
2021/04/21 00:37:29;;;;;;;8.05;4.63;;;6.30;99.90;;;;;;3586889;40;20036;-61
2021/04/21 00:39:56;;;;;;;11.10;5.43;;;6.10;99.90;;;;;;3588728;39;20115;-61
2021/04/21 00:42:28;;;;;;;9.77;4.90;;;5.80;99.90;;;;;;3588600;40;20126;-61
2021/04/21 00:45:14;;;;;;;13.48;5.10;;;4.70;99.90;;;;;;3588574;39;20134;-61
2021/04/21 00:48:09;;;;;;;9.80;4.82;;;5.50;99.90;;;;;;3588995;40;20032;-61
2021/04/21 00:50:51;;;;;;;13.10;5.30;;;5.40;99.90;;;;;;3587715;40;20709;-60
2021/04/21 00:53:34;;;;;;;11.73;6.00;;;5.40;99.90;;;;;;3588781;40;20148;-60
2021/04/21 00:56:32;;;;;;;15.10;5.95;;;5.30;99.90;;;;;;3582359;40;20486;-61
2021/04/21 00:58:59;;;;;;;16.23;6.15;;;5.40;99.90;;;;;;3582167;40;20082;-60
2021/04/21 01:01:29;;;;;;;12.18;5.45;;;5.40;99.90;;;;;;3587552;40;20048;-61
2021/04/21 01:03:55;;;;;;;13.65;6.07;;;5.60;99.90;;;;;;3588477;40;20051;-60
2021/04/21 01:06:37;;;;;;;17.70;6.50;;;5.70;99.90;;;;;;3587032;40;20557;-61
2021/04/21 01:09:07;;;;;;;10.82;6.30;;;5.70;99.90;;;;;;3587543;40;20124;-61
2021/04/21 01:11:48;;;;;;;16.17;5.95;;;5.70;99.90;;;;;;3584724;40;20053;-60
2021/04/21 01:14:23;;;;;;;14.07;6.38;;;5.70;99.90;;;;;;3587232;40;20055;-67
2021/04/21 01:17:00;;;;;;;13.70;5.65;;;5.60;99.90;;;;;;3587793;40;20121;-66
2021/04/21 01:19:56;;;;;;;10.80;5.18;;;5.60;99.90;;;;;;3587892;40;20059;-67
2021/04/21 01:22:53;;;;;;;14.88;5.18;;;5.50;99.90;;;;;;3588801;39;20047;-67
2021/04/21 01:25:40;;;;;;;9.75;4.95;;;5.30;99.90;;;;;;3585243;39;20125;-67
2021/04/21 01:28:10;;;;;;;9.55;5.75;;;5.10;99.90;;;;;;3589380;40;20181;-67
2021/04/21 01:30:41;;;;;;;10.02;5.05;;;5.00;99.90;;;;;;3588694;40;20037;-67
2021/04/21 01:33:15;;;;;;;12.93;6.40;;;5.00;99.90;;;;;;3588643;39;20802;-67
2021/04/21 01:35:45;;;;;;;19.33;7.53;;;5.00;99.90;;;;;;3586669;40;20515;-67
2021/04/21 01:38:13;;;;;;;13.73;6.40;;;5.00;99.90;;;;;;3588281;39;20032;-67
2021/04/21 01:40:43;;;;;;;12.82;5.95;;;5.00;99.90;;;;;;3587691;40;20075;-67
2021/04/21 01:43:22;;;;;;;16.48;6.35;;;5.10;99.90;;;;;;3588155;39;20032;-67
2021/04/21 01:45:54;;;;;;;17.05;6.57;;;5.10;99.90;;;;;;3586694;40;20036;-67
2021/04/21 01:48:23;;;;;;;17.33;6.63;;;5.10;99.90;;;;;;3588081;39;20035;-67
2021/04/21 01:50:50;;;;;;;12.77;6.13;;;5.10;99.90;;;;;;3586450;40;20068;-67
2021/04/21 01:53:34;;;;;;;15.85;5.85;;;5.10;99.90;;;;;;3589143;39;20071;-67
2021/04/21 01:56:05;;;;;;;13.27;5.68;;;5.10;99.90;;;;;;3588942;40;20036;-67
2021/04/21 01:58:39;;;;;;;11.82;5.88;;;5.00;99.90;;;;;;3588685;39;20040;-67
2021/04/21 02:01:11;;;;;;;12.82;6.15;;;5.00;99.90;;;;;;3588823;40;20040;-67
2021/04/21 02:03:41;;;;;;;13.23;6.15;;;4.90;99.90;;;;;;3588950;39;20137;-67
2021/04/21 02:06:31;;;;;;;13.27;5.70;;;4.90;99.90;;;;;;3588597;40;20716;-67
2021/04/21 02:09:15;;;;;;;13.40;5.45;;;4.80;99.90;;;;;;3588786;39;20039;-67
2021/04/21 02:11:56;;;;;;;12.63;5.65;;;4.70;99.90;;;;;;3588681;40;20421;-67
2021/04/21 02:14:32;;;;;;;13.00;5.57;;;4.70;99.90;;;;;;3585557;40;20047;-67
2021/04/21 02:17:33;;;;;;;14.93;6.60;;;4.60;99.90;;;;;;3588635;39;20099;-67
2021/04/21 02:20:09;;;;;;;10.68;6.20;;;4.60;99.90;;;;;;3587328;40;20058;-67
2021/04/21 02:22:52;;;;;;;19.75;6.50;;;4.60;99.90;;;;;;3588019;40;20036;-67
2021/04/21 02:25:26;;;;;;;16.92;7.07;;;4.60;99.90;;;;;;3587553;40;20121;-67
2021/04/21 02:28:11;;;;;;;13.63;6.25;;;4.60;99.90;;;;;;3588309;40;20099;-67
2021/04/21 02:30:45;;;;;;;11.50;5.85;;;4.60;99.90;;;;;;3587634;40;20036;-67
2021/04/21 02:33:11;;;;;;;13.45;7.10;;;4.60;99.90;;;;;;3588574;39;20039;-67
2021/04/21 02:35:47;;;;;;;22.88;6.30;;;4.60;99.90;;;;;;3588493;39;20043;-67
2021/04/21 02:38:40;;;;;;;15.70;7.43;;;4.60;99.90;;;;;;3588403;39;20044;-67
2021/04/21 02:41:06;;;;;;;22.10;7.97;;;4.60;99.90;;;;;;3587678;40;20040;-67
2021/04/21 02:44:08;;;;;;;15.27;6.72;;;4.60;99.90;;;;;;3588389;40;20032;-67
2021/04/21 02:46:52;;;;;;;13.52;7.65;;;4.30;99.90;;;;;;3587613;40;20073;-67
2021/04/21 02:49:41;;;;;;;15.00;7.70;;;4.50;99.90;;;;;;3587976;40;20072;-67
2021/04/21 02:52:31;;;;;;;10.38;6.15;;;4.50;99.90;;;;;;3587320;40;20028;-66
2021/04/21 02:55:15;;;;;;;12.50;6.15;;;4.40;99.90;;;;;;3587934;39;20393;-67
2021/04/21 02:57:54;;;;;;;14.07;5.78;;;4.40;99.90;;;;;;3589400;39;20040;-66
2021/04/21 03:00:35;;;;;;;12.43;5.95;;;4.40;99.90;;;;;;3580813;40;20044;-67
2021/04/21 03:03:35;;;;;;;13.52;5.95;;;4.30;99.90;;;;;;3589658;40;20036;-67
2021/04/21 03:06:09;;;;;;;15.63;5.85;;;4.30;99.90;;;;;;3589956;39;20033;-67
2021/04/21 03:08:41;;;;;;;18.35;6.10;;;4.30;99.90;;;;;;3589634;39;20721;-67
2021/04/21 03:11:21;;;;;;;12.88;5.90;;;4.30;99.90;;;;;;3589049;39;20028;-67
2021/04/21 03:13:58;;;;;;;11.05;5.88;;;4.20;99.90;;;;;;3588388;40;20044;-67
2021/04/21 03:16:26;;;;;;;16.42;6.18;;;4.20;99.90;;;;;;3588310;40;20028;-67
2021/04/21 03:18:53;;;;;;;14.77;5.65;;;4.10;99.90;;;;;;3588215;40;20086;-67
2021/04/21 03:21:26;;;;;;;13.95;6.10;;;4.10;99.90;;;;;;3589270;39;20051;-67
2021/04/21 03:23:58;;;;;;;14.82;6.40;;;4.10;99.90;;;;;;3588682;40;20149;-67
2021/04/21 03:26:27;;;;;;;13.60;6.07;;;4.10;99.90;;;;;;3587743;40;20044;-67
2021/04/21 03:28:58;;;;;;;16.65;5.80;;;4.00;99.90;;;;;;3588936;40;20141;-67
2021/04/21 03:31:26;;;;;;;12.85;6.45;;;4.00;99.90;;;;;;3588649;39;20098;-67
2021/04/21 03:33:57;;;;;;;13.13;6.55;;;4.00;99.90;;;;;;3588890;39;20032;-67
2021/04/21 03:36:24;;;;;;;11.80;6.22;;;3.90;99.90;;;;;;3589787;39;20091;-67
2021/04/21 03:38:50;;;;;;;13.63;6.15;;;3.90;99.90;;;;;;3590280;39;20122;-67
2021/04/21 03:41:15;;;;;;;19.88;6.07;;;3.90;99.90;;;;;;3590114;39;20036;-67
2021/04/21 03:43:42;;;;;;;11.73;5.80;;;3.80;99.90;;;;;;3589508;39;20100;-67
2021/04/21 03:46:10;;;;;;;12.57;6.53;;;3.80;99.90;;;;;;3589504;39;20028;-69
2021/04/21 03:48:37;;;;;;;12.65;6.30;;;3.70;99.90;;;;;;3584652;40;20044;-69
2021/04/21 03:51:04;;;;;;;14.95;6.22;;;3.70;99.90;;;;;;3584770;40;20086;-69
2021/04/21 03:53:33;;;;;;;15.27;6.90;;;3.70;99.90;;;;;;3580609;39;20496;-69
2021/04/21 03:56:01;;;;;;;16.52;6.38;;;3.70;99.90;;;;;;3588662;40;20040;-69
2021/04/21 03:58:30;;;;;;;11.18;6.40;;;3.70;99.90;;;;;;3588507;39;20032;-68
2021/04/21 04:01:17;;;;;;;15.38;7.00;;;3.60;99.90;;;;;;3588791;39;20041;-69
2021/04/21 04:03:50;;;;;;;16.52;7.70;;;3.60;99.90;;;;;;3588868;39;20040;-69
2021/04/21 04:06:28;;;;;;;16.95;7.53;;;3.60;99.90;;;;;;3587832;40;20129;-69
2021/04/21 04:09:07;;;;;;;17.23;6.57;;;3.60;99.90;;;;;;3587004;40;20055;-69
2021/04/21 04:11:45;;;;;;;14.93;7.15;;;3.60;99.90;;;;;;3587876;40;20048;-69
2021/04/21 04:14:21;;;;;;;16.00;7.72;;;3.60;99.90;;;;;;3587341;40;20702;-69
2021/04/21 04:16:52;;;;;;;17.42;7.43;;;3.60;99.90;;;;;;3584827;40;20031;-69
2021/04/21 04:19:18;;;;;;;20.00;7.88;;;3.70;99.90;;;;;;3587927;40;20024;-67
2021/04/21 04:21:51;;;;;;;21.30;7.57;;;3.70;99.90;;;;;;3588899;39;20043;-68
2021/04/21 04:24:21;;;;;;;17.80;7.75;;;3.70;99.90;;;;;;3585932;40;20036;-68
2021/04/21 04:26:47;;;;;;;19.40;8.77;;;3.70;99.90;;;;;;3589006;39;20126;-67
2021/04/21 04:29:13;;;;;;;18.92;8.43;;;3.70;99.90;;;;;;3588976;39;20035;-67
2021/04/21 04:31:40;;;;;;;24.50;12.52;;;3.70;99.90;;;;;;3587222;40;20040;-67
2021/04/21 04:34:09;;;;;;;19.83;9.93;;;3.70;99.90;;;;;;3586931;40;20637;-67
2021/04/21 04:36:39;;;;;;;20.35;11.32;;;3.80;99.90;;;;;;3588487;39;20078;-67
2021/04/21 04:39:08;;;;;;;12.13;7.55;;;3.80;99.90;;;;;;3588666;39;20026;-67
2021/04/21 04:41:36;;;;;;;13.98;7.88;;;3.90;99.90;;;;;;3588556;39;20122;-67
2021/04/21 04:44:02;;;;;;;15.65;7.60;;;4.00;99.90;;;;;;3589296;39;20710;-67
2021/04/21 04:46:30;;;;;;;16.73;7.72;;;4.10;99.90;;;;;;3589370;39;20837;-67
2021/04/21 04:49:23;;;;;;;14.23;7.03;;;4.00;99.90;;;;;;3589245;39;20033;-67
2021/04/21 04:51:52;;;;;;;28.85;8.57;;;4.10;99.90;;;;;;3587943;40;20043;-67
2021/04/21 04:54:19;;;;;;;34.30;9.35;;;4.10;99.90;;;;;;3588780;39;20044;-67
2021/04/21 04:56:46;;;;;;;28.13;10.38;;;4.10;99.90;;;;;;3589584;39;20326;-67
2021/04/21 04:59:13;;;;;;;30.00;11.40;;;4.10;99.90;;;;;;3588924;39;20039;-67
2021/04/21 05:01:57;;;;;;;30.83;11.25;;;4.20;99.90;;;;;;3588942;39;20043;-67
2021/04/21 05:04:44;;;;;;;25.17;9.77;;;4.20;99.90;;;;;;3588507;40;20040;-68
2021/04/21 05:07:14;;;;;;;28.45;10.48;;;4.30;99.90;;;;;;3589158;40;20614;-67
2021/04/21 05:09:42;;;;;;;26.33;10.43;;;4.30;99.90;;;;;;3587482;40;20040;-66
2021/04/21 05:12:13;;;;;;;33.42;14.68;;;4.50;99.90;;;;;;3588526;39;20031;-68
2021/04/21 05:14:40;;;;;;;19.48;8.13;;;4.60;99.90;;;;;;3588276;40;20772;-67
2021/04/21 05:17:43;;;;;;;21.73;9.15;;;4.70;99.90;;;;;;3587386;40;20132;-68
2021/04/21 05:20:47;;;;;;;20.38;8.38;;;4.90;99.90;;;;;;3587307;39;20702;-68
2021/04/21 05:23:57;;;;;;;21.88;8.27;;;4.90;99.90;;;;;;3588506;40;20044;-68
2021/04/21 05:27:00;;;;;;;18.08;8.07;;;5.00;99.90;;;;;;3588984;40;20043;-68
2021/04/21 05:29:57;;;;;;;26.38;9.93;;;5.10;99.90;;;;;;3587807;40;20043;-68
2021/04/21 05:33:17;;;;;;;17.55;7.80;;;5.20;99.90;;;;;;3586666;40;20046;-68
2021/04/21 05:36:20;;;;;;;16.05;7.03;;;5.30;99.90;;;;;;3568120;40;20044;-68
2021/04/21 05:39:24;;;;;;;19.85;7.50;;;5.40;99.90;;;;;;3588541;40;20049;-69
2021/04/21 05:41:50;;;;;;;17.98;7.00;;;5.60;99.90;;;;;;3588487;40;20083;-74
2021/04/21 05:44:53;;;;;;;16.58;7.68;;;6.00;99.90;;;;;;3588818;39;20557;-68
2021/04/21 05:47:21;;;;;;;13.63;7.70;;;5.80;99.90;;;;;;3588656;40;20040;-68
2021/04/21 05:50:12;;;;;;;22.15;7.90;;;6.00;99.90;;;;;;3588322;39;20137;-68
2021/04/21 05:52:55;;;;;;;14.57;7.90;;;6.10;99.90;;;;;;3589239;40;20247;-68
2021/04/21 05:55:52;;;;;;;16.17;7.53;;;6.30;99.90;;;;;;3588178;40;20051;-68
2021/04/21 05:58:36;;;;;;;21.65;7.70;;;6.40;99.90;;;;;;3589098;40;20456;-68
2021/04/21 06:01:24;;;;;;;17.38;8.35;;;6.60;99.90;;;;;;3584913;40;20032;-68
2021/04/21 06:03:54;;;;;;;17.45;8.50;;;6.80;99.90;;;;;;3586893;40;20114;-68
2021/04/21 06:06:20;;;;;;;26.05;10.65;;;7.00;99.90;;;;;;3588005;39;20253;-68
2021/04/21 06:08:46;;;;;;;18.73;7.65;;;7.20;99.90;;;;;;3588056;39;20032;-69
2021/04/21 06:11:20;;;;;;;20.33;7.85;;;7.40;99.90;;;;;;3587640;39;20075;-68
2021/04/21 06:13:49;;;;;;;18.27;8.17;;;7.60;99.90;;;;;;3587442;39;20156;-68
2021/04/21 06:16:17;;;;;;;20.52;9.15;;;7.80;99.90;;;;;;3588416;39;20738;-68
2021/04/21 06:18:44;;;;;;;20.38;7.82;;;7.90;99.90;;;;;;3588053;39;20042;-69
2021/04/21 06:21:21;;;;;;;16.38;7.50;;;8.10;99.90;;;;;;3585935;40;20039;-68
2021/04/21 06:23:47;;;;;;;20.15;7.47;;;8.30;99.90;;;;;;3588140;40;20052;-68
2021/04/21 06:26:19;;;;;;;20.85;8.38;;;8.40;99.90;;;;;;3588393;39;20117;-68
2021/04/21 06:28:57;;;;;;;16.13;7.68;;;8.60;99.90;;;;;;3588210;40;20047;-68
2021/04/21 06:31:31;;;;;;;18.80;8.00;;;8.70;99.90;;;;;;3587277;39;20040;-69
2021/04/21 06:33:57;;;;;;;18.58;7.47;;;8.90;99.90;;;;;;3587385;40;20052;-69
2021/04/21 06:36:23;;;;;;;17.33;6.90;;;9.00;99.90;;;;;;3587802;39;20319;-69
2021/04/21 06:38:54;;;;;;;24.65;8.50;;;9.20;99.90;;;;;;3588328;39;20047;-69
2021/04/21 06:41:26;;;;;;;30.73;7.50;;;9.30;99.90;;;;;;3588298;39;20054;-68
2021/04/21 06:43:52;;;;;;;16.80;7.75;;;9.40;99.90;;;;;;3587801;40;20139;-69
2021/04/21 06:46:19;;;;;;;14.27;7.75;;;9.60;99.90;;;;;;3588183;39;20766;-69
2021/04/21 06:48:50;;;;;;;12.05;6.40;;;9.70;99.90;;;;;;3588181;39;20032;-69
2021/04/21 06:51:16;;;;;;;21.35;7.85;;;9.70;99.90;;;;;;3588088;39;20073;-70
2021/04/21 06:53:44;;;;;;;18.15;8.00;;;9.90;99.90;;;;;;3588194;39;20040;-67
2021/04/21 06:56:11;;;;;;;20.63;8.60;;;10.10;99.90;;;;;;3587943;39;20835;-67
2021/04/21 06:58:39;;;;;;;21.63;8.50;;;10.20;99.90;;;;;;3587561;39;20039;-68
2021/04/21 07:01:12;;;;;;;20.20;7.60;;;10.40;99.90;;;;;;3587990;39;20095;-68
2021/04/21 07:03:39;;;;;;;17.58;7.32;;;10.60;99.90;;;;;;3585845;39;20367;-68
2021/04/21 07:06:05;;;;;;;18.00;7.18;;;10.70;99.90;;;;;;3584932;40;20043;-68
2021/04/21 07:08:37;;;;;;;13.80;6.88;;;10.80;99.90;;;;;;3586493;40;20040;-68
2021/04/21 07:11:05;;;;;;;18.45;7.57;;;10.80;99.90;;;;;;3587062;39;20048;-68
2021/04/21 07:13:45;;;;;;;18.88;7.72;;;10.90;99.90;;;;;;3586286;40;20047;-69
2021/04/21 07:16:18;;;;;;;21.75;7.45;;;11.00;99.90;;;;;;3587208;40;20828;-68
2021/04/21 07:18:51;;;;;;;16.98;7.60;;;11.10;99.90;;;;;;3587211;40;20579;-69
2021/04/21 07:21:18;;;;;;;17.23;7.18;;;11.30;99.30;;;;;;3587370;39;20040;-68
2021/04/21 07:23:51;;;;;;;18.02;7.00;;;11.40;98.90;;;;;;3587807;40;20043;-69
2021/04/21 07:26:17;;;;;;;14.57;7.30;;;11.50;98.80;;;;;;3586221;40;20036;-69
2021/04/21 07:28:44;;;;;;;17.95;7.13;;;11.50;99.70;;;;;;3587824;39;20381;-69
2021/04/21 07:31:16;;;;;;;15.43;6.30;;;11.70;99.50;;;;;;3587204;40;20046;-67
2021/04/21 07:33:44;;;;;;;12.40;6.05;;;11.80;99.10;;;;;;3588164;39;20036;-67
2021/04/21 07:36:22;;;;;;;14.88;6.68;;;11.90;98.30;;;;;;3587688;40;20694;-68
2021/04/21 07:38:53;;;;;;;15.20;6.88;;;12.10;98.80;;;;;;3585609;40;20040;-67
2021/04/21 07:41:39;;;;;;;17.00;7.25;;;12.20;98.30;;;;;;3587712;39;20036;-67
2021/04/21 07:44:06;;;;;;;;;;;12.50;97.40;;;;;;3589478;40;20051;-67
2021/04/21 07:46:33;;;;;;;14.55;6.75;;;12.70;96.80;;;;;;3589359;39;19975;-66
2021/04/21 07:48:58;;;;;;;22.02;6.43;;;12.80;96.80;;;;;;3589038;40;20064;-67
2021/04/21 07:51:24;;;;;;;18.95;7.63;;;12.90;95.60;;;;;;3588617;39;20156;-67
2021/04/21 07:53:55;;;;;;;22.05;7.85;;;13.00;98.40;;;;;;3587513;40;20105;-67
2021/04/21 07:56:22;;;;;;;17.75;7.88;;;13.30;95.90;;;;;;3588928;39;20040;-68
2021/04/21 07:58:49;;;;;;;11.55;6.57;;;13.50;94.10;;;;;;3589970;39;20024;-67
2021/04/21 08:01:16;;;;;;;15.98;6.88;;;13.70;92.60;;;;;;3586156;40;20035;-66
2021/04/21 08:03:42;;;;;;;21.27;7.22;;;13.70;92.60;;;;;;3589837;40;20079;-67
2021/04/21 08:06:08;;;;;;;18.80;7.80;;;14.00;91.90;;;;;;3588450;39;20051;-67
2021/04/21 08:08:36;;;;;;;16.25;6.65;;;14.20;88.60;;;;;;3589088;39;20046;-67
2021/04/21 08:11:04;;;;;;;17.92;7.03;;;14.40;84.00;;;;;;3585989;40;20052;-69
2021/04/21 08:13:43;;;;;;;18.27;7.15;;;14.60;82.00;;;;;;3585799;39;20842;-67
2021/04/21 08:16:26;;;;;;;19.00;7.93;;;14.70;86.00;;;;;;3588550;40;20042;-67
2021/04/21 08:18:56;;;;;;;15.70;7.13;;;15.00;82.60;;;;;;3587793;40;20043;-67
2021/04/21 08:21:40;;;;;;;24.33;7.00;;;15.30;77.20;;;;;;3586839;40;20047;-67
2021/04/21 08:24:14;;;;;;;15.68;6.72;;;15.40;72.50;;;;;;3587817;40;20068;-67
2021/04/21 08:26:48;;;;;;;13.10;6.65;;;15.60;73.00;;;;;;3588666;40;20044;-67
2021/04/21 08:29:15;;;;;;;19.63;6.75;;;16.00;71.50;;;;;;3588523;39;20521;-67
2021/04/21 08:31:43;;;;;;;13.70;6.88;;;16.10;67.70;;;;;;3587405;40;20024;-67
2021/04/21 08:34:09;;;;;;;18.88;6.55;;;16.10;69.70;;;;;;3588524;39;20032;-67
2021/04/21 08:36:35;;;;;;;14.98;7.15;;;16.20;66.30;;;;;;3589016;39;20040;-67
2021/04/21 08:39:01;;;;;;;18.75;6.38;;;16.40;64.60;;;;;;3588791;40;20043;-66
2021/04/21 08:41:28;;;;;;;14.68;7.00;;;16.40;65.20;;;;;;3588883;39;20033;-67
2021/04/21 08:43:55;;;;;;;13.88;6.20;;;16.60;63.70;;;;;;3589067;39;20046;-67
2021/04/21 08:46:21;;;;;;;12.65;5.65;;;16.50;58.90;;;;;;3589085;39;20128;-67
2021/04/21 08:48:47;;;;;;;10.13;5.47;;;16.50;59.80;;;;;;3589058;40;20032;-67
2021/04/21 08:51:19;;;;;;;17.33;5.90;;;16.70;61.90;;;;;;3588589;39;20070;-67
2021/04/21 08:53:54;;;;;;;11.35;5.50;;;16.70;57.70;;;;;;3588641;39;20036;-67
2021/04/21 08:56:22;;;;;;;16.15;6.03;;;16.70;59.70;;;;;;3587459;40;20784;-67
2021/04/21 08:58:50;;;;;;;15.43;6.07;;;16.60;61.80;;;;;;3588293;39;20052;-65
2021/04/21 09:01:16;;;;;;;12.68;5.63;;;16.80;63.10;;;;;;3587300;40;20032;-67
2021/04/21 09:03:44;;;;;;;8.88;5.65;;;17.10;61.70;;;;;;3588187;39;20043;-67
2021/04/21 09:06:12;;;;;;;19.90;5.80;;;17.20;60.00;;;;;;3584998;40;20032;-68
2021/04/21 09:08:39;;;;;;;17.38;5.85;;;17.40;60.60;;;;;;3584523;40;20037;-67
2021/04/21 09:11:05;;;;;;;11.98;7.00;;;17.40;59.00;;;;;;3586898;40;20032;-67
2021/04/21 09:13:32;;;;;;;21.27;11.65;;;17.50;59.70;;;;;;3588941;39;20047;-69
2021/04/21 09:15:58;;;;;;;14.43;5.60;;;17.60;57.80;;;;;;3589566;39;20036;-68
2021/04/21 09:18:25;;;;;;;14.05;5.80;;;17.70;57.40;;;;;;3587328;39;20425;-71
2021/04/21 09:20:50;;;;;;;9.32;4.30;;;17.70;57.00;;;;;;3588692;39;20025;-67
2021/04/21 09:23:19;;;;;;;10.18;4.80;;;17.70;59.60;;;;;;3588581;40;20044;-66
2021/04/21 09:25:49;;;;;;;15.25;7.13;;;18.00;56.40;;;;;;3588587;39;20028;-66
2021/04/21 09:28:18;;;;;;;16.33;5.30;;;18.00;57.30;;;;;;3577993;40;20057;-67
2021/04/21 09:30:50;;;;;;;7.63;3.95;;;18.40;55.70;;;;;;3588401;39;20126;-67
2021/04/21 09:33:17;;;;;;;19.60;10.75;;;18.50;55.00;;;;;;3588569;40;20059;-67
2021/04/21 09:35:44;;;;;;;10.65;6.20;;;18.70;53.70;;;;;;3587213;39;20698;-67
2021/04/21 09:38:13;;;;;;;10.80;5.18;;;18.90;54.30;;;;;;3586441;40;20040;-67
2021/04/21 09:40:50;;;;;;;13.18;5.80;;;19.00;53.80;;;;;;3597098;39;20072;-67
2021/04/21 09:43:22;;;;;;;15.95;5.78;;;19.20;52.60;;;;;;3587429;40;20040;-67
2021/04/21 09:45:52;;;;;;;10.05;5.32;;;19.20;51.10;;;;;;3588218;40;20570;-67
2021/04/21 09:48:32;;;;;;;8.18;4.35;;;19.30;52.20;;;;;;3588623;39;20040;-67
2021/04/21 09:51:12;;;;;;;10.70;4.40;;;19.20;51.30;;;;;;3586540;40;20032;-67
2021/04/21 09:53:43;;;;;;;13.00;5.68;;;18.90;52.60;;;;;;3588359;40;20445;-67
2021/04/21 09:56:23;;;;;;;12.88;6.15;;;18.90;52.50;;;;;;3587870;39;20670;-67
2021/04/21 09:58:54;;;;;;;11.10;6.68;;;19.00;52.20;;;;;;3588193;39;20172;-68
2021/04/21 10:01:32;;;;;;;12.00;5.05;;;19.10;53.50;;;;;;3588406;39;20303;-67
2021/04/21 10:04:24;;;;;;;8.77;5.93;;;19.20;51.90;;;;;;3587669;39;20114;-66
2021/04/21 10:06:55;;;;;;;15.73;5.85;;;19.60;51.00;;;;;;3588697;39;20116;-67
2021/04/21 10:09:37;;;;;;;11.65;4.72;;;19.50;49.10;;;;;;3587270;40;20056;-67
2021/04/21 10:12:19;;;;;;;18.20;8.40;;;19.30;50.20;;;;;;3588418;39;20091;-66
2021/04/21 10:14:47;;;;;;;14.50;7.82;;;19.30;51.40;;;;;;3588732;40;20032;-66
2021/04/21 10:17:14;;;;;;;16.38;6.28;;;19.30;50.60;;;;;;3588560;40;20055;-66
2021/04/21 10:19:42;;;;;;;10.68;5.30;;;19.20;50.40;;;;;;3588357;39;20082;-66
2021/04/21 10:22:11;;;;;;;10.05;5.45;;;19.40;50.30;;;;;;3588550;39;20035;-66
2021/04/21 10:24:37;;;;;;;9.98;4.65;;;19.40;48.80;;;;;;3597708;39;20141;-66
2021/04/21 10:27:04;;;;;;;15.25;5.57;;;19.30;49.70;;;;;;3588147;39;20493;-67
2021/04/21 10:29:31;;;;;;;12.00;5.18;;;19.20;50.30;;;;;;3588443;40;20428;-67
2021/04/21 10:31:57;;;;;;;11.75;5.63;;;19.20;51.50;;;;;;3587717;40;20718;-67
2021/04/21 10:34:24;;;;;;;10.18;4.45;;;19.40;49.00;;;;;;3586224;40;20063;-67
2021/04/21 10:36:51;;;;;;;14.75;4.55;;;19.50;47.90;;;;;;3578328;39;20620;-67
2021/04/21 10:39:29;;;;;;;13.82;4.50;;;19.70;48.50;;;;;;3588097;39;20107;-67
2021/04/21 10:42:10;;;;;;;6.38;4.25;;;19.80;47.30;;;;;;3588130;40;20074;-67
2021/04/21 10:44:38;;;;;;;16.10;4.15;;;20.00;48.30;;;;;;3588102;39;20036;-66
2021/04/21 10:47:10;;;;;;;12.70;5.30;;;20.00;46.70;;;;;;3588502;40;20670;-67
2021/04/21 10:49:37;;;;;;;8.43;4.72;;;20.00;45.80;;;;;;3587708;40;20069;-67
2021/04/21 10:52:22;;;;;;;12.35;4.50;;;20.10;46.20;;;;;;3588727;40;20032;-67
2021/04/21 10:54:53;;;;;;;10.73;4.97;;;20.10;48.00;;;;;;3588132;39;20051;-66
2021/04/21 10:57:21;;;;;;;11.05;4.68;;;20.20;46.00;;;;;;3588090;39;20042;-67
2021/04/21 11:00:06;;;;;;;14.27;4.13;;;20.30;45.90;;;;;;3588092;40;20881;-67
2021/04/21 11:02:43;;;;;;;6.85;3.90;;;20.40;45.70;;;;;;3587745;39;20096;-67
2021/04/21 11:05:19;;;;;;;9.63;3.70;;;20.60;43.50;;;;;;3586045;40;20080;-67
2021/04/21 11:08:01;;;;;;;8.60;4.55;;;20.70;44.80;;;;;;3587116;40;20048;-67
2021/04/21 11:10:40;;;;;;;14.27;4.35;;;20.90;44.60;;;;;;3587213;40;20033;-67
2021/04/21 11:13:09;;;;;;;7.88;3.75;;;20.60;43.90;;;;;;3586510;40;20060;-66
2021/04/21 11:15:42;;;;;;;9.35;3.40;;;20.60;44.80;;;;;;3588208;40;20075;-68
2021/04/21 11:18:08;;;;;;;9.90;3.17;;;20.50;43.80;;;;;;3588282;39;20024;-69
2021/04/21 11:20:46;;;;;;;5.90;3.75;;;20.40;40.60;;;;;;3588558;40;20133;-67
2021/04/21 11:23:57;;;;;;;13.68;6.65;;;20.50;42.40;;;;;;3589667;39;20052;-67
2021/04/21 11:26:23;;;;;;;13.95;4.97;;;21.10;41.40;;;;;;3575776;40;20191;-67
2021/04/21 11:29:19;;;;;;;8.52;3.97;;;21.40;41.20;;;;;;3577026;40;20100;-67
2021/04/21 11:31:45;;;;;;;7.68;4.63;;;21.50;41.70;;;;;;3585567;39;20048;-67
2021/04/21 11:34:13;;;;;;;6.07;3.55;;;21.70;41.60;;;;;;3590057;39;20073;-67
2021/04/21 11:36:49;;;;;;;5.68;3.08;;;22.30;40.90;;;;;;3589855;39;20052;-66
2021/04/21 11:39:34;;;;;;;14.68;3.05;;;22.60;40.20;;;;;;3590509;39;20494;-66
2021/04/21 11:42:34;;;;;;;8.35;3.67;;;22.80;39.50;;;;;;3589836;40;20089;-66
2021/04/21 11:45:05;;;;;;;8.35;3.65;;;23.30;39.30;;;;;;3589591;40;20136;-66
2021/04/21 11:47:37;;;;;;;5.00;2.85;;;23.90;38.50;;;;;;3583691;40;20082;-65
2021/04/21 11:50:06;;;;;;;7.50;3.13;;;23.90;39.40;;;;;;3589245;39;20044;-66
2021/04/21 11:53:07;;;;;;;9.88;2.63;;;24.20;39.20;;;;;;3587365;40;20040;-66
2021/04/21 11:58:37;;;;;;;6.53;2.80;;;23.70;36.80;;;;;;3588667;40;20140;-66
2021/04/21 12:01:12;;;;;;;8.48;3.10;;;23.40;37.90;;;;;;3588042;40;20043;-66
2021/04/21 12:03:43;;;;;;;7.23;2.77;;;22.60;37.70;;;;;;3587581;40;20345;-65
2021/04/21 12:06:17;;;;;;;6.53;2.80;;;21.70;37.60;;;;;;3587222;40;20044;-66
2021/04/21 12:08:48;;;;;;;8.25;3.00;;;21.00;40.10;;;;;;3588521;40;20063;-65
2021/04/21 12:11:21;;;;;;;7.25;2.90;;;20.40;40.60;;;;;;3588272;39;20098;-66
2021/04/21 12:13:47;;;;;;;7.28;3.00;;;20.30;41.80;;;;;;3588773;40;20076;-66
2021/04/21 12:16:20;;;;;;;8.60;3.65;;;20.60;41.30;;;;;;3589037;39;20624;-66
2021/04/21 12:18:48;;;;;;;6.90;3.50;;;21.10;39.70;;;;;;3588453;39;20040;-66
2021/04/21 12:21:17;;;;;;;10.45;3.50;;;21.40;39.60;;;;;;3588702;39;20125;-65
2021/04/21 12:23:51;;;;;;;12.43;3.45;;;21.10;40.80;;;;;;3589612;39;20047;-66
2021/04/21 12:26:24;;;;;;;9.52;3.70;;;20.90;40.50;;;;;;3589784;39;20044;-66
2021/04/21 12:28:57;;;;;;;20.98;4.82;;;20.80;41.20;;;;;;3589547;39;20186;-66
2021/04/21 12:31:24;;;;;;;9.63;4.18;;;20.80;41.60;;;;;;3588495;40;20060;-66
2021/04/21 12:33:51;;;;;;;5.60;2.88;;;20.70;41.00;;;;;;3587915;40;20696;-66
2021/04/21 12:36:18;;;;;;;7.78;3.47;;;20.50;41.20;;;;;;3589373;39;20036;-66
2021/04/21 12:39:09;;;;;;;7.82;3.17;;;19.80;42.60;;;;;;3588572;40;20482;-66
2021/04/21 12:41:36;;;;;;;9.80;3.50;;;19.60;44.00;;;;;;3588733;40;20079;-65
2021/04/21 12:44:26;;;;;;;14.95;5.43;;;20.60;41.30;;;;;;3589190;39;20048;-65
2021/04/21 12:46:53;;;;;;;6.85;3.70;;;21.40;40.90;;;;;;3588639;40;20146;-65
2021/04/21 12:49:37;;;;;;;11.10;3.30;;;22.10;40.70;;;;;;3588087;40;20042;-69
2021/04/21 12:52:06;;;;;;;12.13;3.10;;;22.40;40.80;;;;;;3587862;39;20052;-70
2021/04/21 12:54:37;;;;;;;7.63;2.92;;;22.80;39.30;;;;;;3588216;39;20036;-71
2021/04/21 12:57:05;;;;;;;8.02;2.90;;;22.60;39.10;;;;;;3587872;39;20722;-70
2021/04/21 12:59:40;;;;;;;7.30;3.40;;;22.10;39.90;;;;;;3586849;40;20036;-70
2021/04/21 13:02:06;;;;;;;8.60;3.30;;;20.70;47.90;;;;;;3585813;40;20032;-70
2021/04/21 13:04:40;;;;;;;8.85;3.50;;;20.70;41.70;;;;;;3587957;39;20714;-70
2021/04/21 13:07:13;;;;;;;7.90;2.90;;;20.70;41.90;;;;;;3587821;39;20141;-70
2021/04/21 13:09:39;;;;;;;10.90;2.88;;;20.90;41.70;;;;;;3587142;39;20598;-70
2021/04/21 13:12:06;;;;;;;7.40;2.85;;;21.00;41.00;;;;;;3588110;40;20035;-70
2021/04/21 13:14:36;;;;;;;6.82;2.90;;;;;;;;;;3586261;40;20032;-70
2021/04/21 13:17:02;;;;;;;6.60;3.28;;;;;;;;;;3587136;40;20405;-70
2021/04/21 13:19:33;;;;;;;12.98;3.38;;;21.20;39.70;;;;;;3583039;40;20121;-71
2021/04/21 13:22:09;;;;;;;5.70;3.17;;;;;;;;;;3589398;39;20405;-71